createdAt,value
2022-08-09T00:00:21.590Z,15.80
2022-08-09T00:02:51.716Z,15.80
2022-08-09T00:06:18.015Z,15.80
2022-08-09T00:08:31.528Z,15.90
2022-08-09T00:11:06.005Z,15.80
2022-08-09T00:13:48.453Z,15.80
2022-08-09T00:16:15.362Z,15.80
2022-08-09T00:18:52.995Z,15.80
2022-08-09T00:21:20.854Z,15.80
2022-08-09T00:23:55.257Z,15.80
2022-08-09T00:26:29.733Z,15.80
2022-08-09T00:29:01.209Z,15.90
2022-08-09T00:31:57.410Z,15.90
2022-08-09T00:34:15.624Z,15.90
2022-08-09T00:36:47.509Z,15.90
2022-08-09T00:40:01.940Z,15.80
2022-08-09T00:44:14.160Z,15.80
2022-08-09T00:44:51.719Z,15.80
2022-08-09T00:47:21.398Z,15.70
2022-08-09T00:49:55.197Z,15.70
2022-08-09T00:52:30.562Z,15.60
2022-08-09T00:55:02.224Z,15.60
2022-08-09T00:57:34.661Z,15.50
2022-08-09T01:00:21.879Z,15.50
2022-08-09T01:03:10.067Z,15.40
2022-08-09T01:05:54.531Z,15.30
2022-08-09T01:08:51.611Z,15.20
2022-08-09T01:11:36.780Z,15.20
2022-08-09T01:14:38.326Z,15.20
2022-08-09T01:17:11.615Z,15.10
2022-08-09T01:20:02.742Z,15.10
2022-08-09T01:22:52.135Z,15.10
2022-08-09T01:26:25.037Z,15.10
2022-08-09T01:28:56.395Z,15.10
2022-08-09T01:32:32.495Z,15.00
2022-08-09T01:34:19.949Z,15.00
2022-08-09T01:36:49.178Z,14.90
2022-08-09T01:39:16.776Z,14.90
2022-08-09T01:41:53.563Z,14.90
2022-08-09T01:44:29.259Z,14.90
2022-08-09T01:46:59.889Z,14.90
2022-08-09T01:49:32.024Z,14.80
2022-08-09T01:52:14.569Z,14.80
2022-08-09T01:54:57.365Z,14.70
2022-08-09T01:57:44.317Z,14.70
2022-08-09T02:00:19.301Z,14.60
2022-08-09T02:03:03.088Z,14.60
2022-08-09T02:05:37.893Z,14.60
2022-08-09T02:08:39.996Z,14.50
2022-08-09T02:11:16.726Z,14.50
2022-08-09T02:14:06.428Z,14.50
2022-08-09T02:16:59.927Z,14.40
2022-08-09T02:19:23.021Z,14.40
2022-08-09T02:21:55.913Z,14.30
2022-08-09T02:24:26.917Z,14.40
2022-08-09T02:26:58.817Z,14.30
2022-08-09T02:29:31.262Z,14.40
2022-08-09T02:32:01.983Z,14.40
2022-08-09T02:34:41.696Z,14.40
2022-08-09T02:37:25.015Z,14.40
2022-08-09T02:40:10.779Z,14.40
2022-08-09T02:42:39.421Z,14.40
2022-08-09T02:45:15.183Z,14.30
2022-08-09T02:47:57.256Z,14.30
2022-08-09T02:50:45.429Z,14.30
2022-08-09T02:53:36.603Z,14.20
2022-08-09T02:56:06.288Z,14.20
2022-08-09T02:58:37.075Z,14.20
2022-08-09T03:01:08.022Z,14.20
2022-08-09T03:04:16.676Z,14.20
2022-08-09T03:06:25.074Z,14.10
2022-08-09T03:08:55.508Z,14.20
2022-08-09T03:11:29.655Z,14.20
2022-08-09T03:14:16.555Z,14.10
2022-08-09T03:16:45.069Z,14.20
2022-08-09T03:19:59.616Z,14.20
2022-08-09T03:22:12.354Z,14.20
2022-08-09T03:25:00.279Z,14.10
2022-08-09T03:27:45.546Z,14.10
2022-08-09T03:30:29.570Z,14.20
2022-08-09T03:33:13.048Z,14.10
2022-08-09T03:36:13.260Z,14.10
2022-08-09T03:38:41.651Z,14.20
2022-08-09T03:41:15.416Z,14.20
2022-08-09T03:44:03.306Z,14.10
2022-08-09T03:46:34.316Z,14.20
2022-08-09T03:49:04.330Z,14.20
2022-08-09T03:51:55.371Z,14.10
2022-08-09T03:54:38.469Z,14.20
2022-08-09T03:57:18.429Z,14.10
2022-08-09T03:59:54.248Z,14.10
2022-08-09T04:02:26.666Z,14.20
2022-08-09T04:04:57.262Z,14.20
2022-08-09T04:07:33.705Z,14.20
2022-08-09T04:10:13.178Z,14.20
2022-08-09T04:12:50.015Z,14.30
2022-08-09T04:15:38.899Z,14.40
2022-08-09T04:18:07.769Z,14.40
2022-08-09T04:20:34.823Z,14.40
2022-08-09T04:23:01.985Z,14.50
2022-08-09T04:25:29.454Z,14.60
2022-08-09T04:28:02.526Z,14.50
2022-08-09T04:30:31.830Z,14.60
2022-08-09T04:33:00.348Z,14.70
2022-08-09T04:35:29.300Z,14.80
2022-08-09T04:37:59.840Z,15.00
2022-08-09T04:40:48.315Z,15.10
2022-08-09T04:43:23.270Z,15.10
2022-08-09T04:45:54.037Z,15.20
2022-08-09T04:48:21.598Z,15.20
2022-08-09T04:50:50.984Z,15.20
2022-08-09T04:53:18.174Z,15.20
2022-08-09T04:55:57.840Z,15.20
2022-08-09T04:58:26.287Z,15.20
2022-08-09T05:00:54.440Z,15.30
2022-08-09T05:03:40.007Z,15.30
2022-08-09T05:06:09.834Z,15.40
2022-08-09T05:08:38.298Z,15.30
2022-08-09T05:11:06.946Z,15.40
2022-08-09T05:13:38.626Z,15.50
2022-08-09T05:16:07.971Z,15.50
2022-08-09T05:18:38.429Z,15.50
2022-08-09T05:21:24.839Z,15.60
2022-08-09T05:24:01.360Z,15.70
2022-08-09T05:26:45.519Z,15.80
2022-08-09T05:29:21.472Z,15.90
2022-08-09T05:31:57.223Z,15.90
2022-08-09T05:34:30.830Z,15.90
2022-08-09T05:37:06.104Z,16.10
2022-08-09T05:39:43.367Z,16.10
2022-08-09T05:42:20.508Z,16.20
2022-08-09T05:44:51.356Z,16.20
2022-08-09T05:47:23.251Z,16.30
2022-08-09T05:50:29.896Z,16.40
2022-08-09T05:52:42.008Z,16.50
2022-08-09T05:55:20.796Z,16.70
2022-08-09T05:57:53.800Z,16.90
2022-08-09T06:00:23.953Z,17.20
2022-08-09T06:02:54.216Z,17.50
2022-08-09T06:05:50.196Z,17.60
2022-08-09T06:08:11.611Z,17.70
2022-08-09T06:10:39.119Z,17.70
2022-08-09T06:13:20.261Z,17.70
2022-08-09T06:15:51.484Z,17.70
2022-08-09T06:18:24.760Z,17.70
2022-08-09T06:20:54.839Z,17.70
2022-08-09T06:23:55.126Z,17.80
2022-08-09T06:26:14.635Z,18.00
2022-08-09T06:28:43.214Z,18.00
2022-08-09T06:31:11.116Z,18.20
2022-08-09T06:33:41.040Z,18.40
2022-08-09T06:36:12.028Z,18.50
2022-08-09T06:38:49.814Z,18.60
2022-08-09T06:41:18.984Z,18.70
2022-08-09T06:43:48.421Z,18.90
2022-08-09T06:46:40.383Z,18.90
2022-08-09T06:49:03.724Z,19.00
2022-08-09T06:51:31.100Z,19.00
2022-08-09T06:54:00.947Z,18.80
2022-08-09T06:56:31.074Z,18.80
2022-08-09T07:00:51.876Z,18.80
2022-08-09T07:01:58.243Z,18.90
2022-08-09T07:04:31.175Z,18.90
2022-08-09T07:07:00.493Z,19.10
2022-08-09T07:09:55.498Z,19.10
2022-08-09T07:12:18.316Z,19.50
2022-08-09T07:14:53.541Z,19.80
2022-08-09T07:17:21.709Z,19.90
2022-08-09T07:19:55.220Z,20.20
2022-08-09T07:22:34.349Z,20.50
2022-08-09T07:25:05.137Z,20.70
2022-08-09T07:27:43.157Z,21.10
2022-08-09T07:30:21.793Z,21.40
2022-08-09T07:32:51.809Z,21.30
2022-08-09T07:35:19.644Z,21.40
2022-08-09T07:37:49.260Z,21.60
2022-08-09T07:40:20.679Z,21.80
2022-08-09T07:43:00.721Z,22.70
2022-08-09T07:45:39.404Z,23.50
2022-08-09T07:48:28.343Z,23.70
2022-08-09T07:51:09.041Z,23.30
2022-08-09T07:54:06.236Z,23.00
2022-08-09T07:56:37.007Z,22.80
2022-08-09T07:59:15.955Z,22.80
2022-08-09T08:01:56.091Z,22.60
2022-08-09T08:04:25.575Z,22.30
2022-08-09T08:07:00.281Z,21.90
2022-08-09T08:09:42.912Z,21.50
2022-08-09T08:12:37.165Z,21.30
2022-08-09T08:15:00.319Z,21.30
2022-08-09T08:17:51.965Z,21.10
2022-08-09T08:20:15.523Z,21.10
2022-08-09T08:22:43.202Z,21.10
2022-08-09T08:25:13.415Z,21.10
2022-08-09T08:27:42.866Z,21.40
2022-08-09T08:30:14.030Z,21.50
2022-08-09T08:32:52.809Z,21.60
2022-08-09T08:35:22.567Z,21.60
2022-08-09T08:37:59.522Z,21.50
2022-08-09T08:40:33.563Z,21.60
2022-08-09T08:43:03.320Z,21.70
2022-08-09T08:45:51.475Z,21.70
2022-08-09T08:48:22.703Z,21.80
2022-08-09T08:50:57.383Z,22.00
2022-08-09T08:53:37.031Z,21.70
2022-08-09T08:56:06.145Z,21.40
2022-08-09T08:58:33.482Z,21.30
2022-08-09T09:01:08.847Z,21.20
2022-08-09T09:03:38.242Z,21.20
2022-08-09T09:06:07.859Z,21.10
2022-08-09T09:08:40.710Z,21.10
2022-08-09T09:11:13.920Z,21.00
2022-08-09T09:13:56.507Z,21.10
2022-08-09T09:16:32.168Z,21.10
2022-08-09T09:19:37.058Z,21.30
2022-08-09T09:22:11.306Z,21.30
2022-08-09T09:24:44.612Z,21.40
2022-08-09T09:28:04.396Z,21.60
2022-08-09T09:30:22.758Z,21.80
2022-08-09T09:33:16.983Z,21.90
2022-08-09T09:36:11.794Z,21.90
2022-08-09T09:38:56.951Z,22.00
2022-08-09T09:41:33.125Z,22.20
2022-08-09T09:44:25.392Z,22.40
2022-08-09T09:47:07.204Z,22.30
2022-08-09T09:50:07.446Z,22.30
2022-08-09T09:52:37.491Z,22.20
2022-08-09T09:55:28.568Z,22.20
2022-08-09T09:58:02.411Z,22.40
2022-08-09T10:00:33.703Z,22.30
2022-08-09T10:03:09.185Z,22.40
2022-08-09T10:06:03.765Z,22.40
2022-08-09T10:08:31.976Z,22.30
2022-08-09T10:10:59.153Z,22.30
2022-08-09T10:13:45.031Z,22.20
2022-08-09T10:16:58.025Z,22.30
2022-08-09T10:19:03.498Z,22.50
2022-08-09T10:21:31.311Z,22.50
2022-08-09T10:24:03.966Z,22.60
2022-08-09T10:26:31.598Z,22.50
2022-08-09T10:29:35.993Z,22.40
2022-08-09T10:34:37.159Z,22.00
2022-08-09T10:37:04.566Z,22.10
2022-08-09T10:39:40.581Z,22.20
2022-08-09T10:42:08.343Z,22.30
2022-08-09T10:44:39.901Z,22.40
2022-08-09T10:48:16.761Z,22.40
2022-08-09T10:50:51.878Z,22.20
2022-08-09T10:53:54.155Z,21.80
2022-08-09T10:56:25.925Z,21.60
2022-08-09T10:58:54.716Z,21.40
2022-08-09T11:03:15.058Z,21.20
2022-08-09T11:04:32.647Z,21.20
2022-08-09T11:07:00.903Z,21.30
2022-08-09T11:09:47.642Z,21.30
2022-08-09T11:12:29.943Z,21.20
2022-08-09T11:15:01.519Z,21.20
2022-08-09T11:17:45.338Z,21.10
2022-08-09T11:20:22.580Z,21.00
2022-08-09T11:22:56.625Z,20.90
2022-08-09T11:25:36.274Z,20.80
2022-08-09T11:28:38.394Z,20.80
2022-08-09T11:31:50.262Z,20.70
2022-08-09T11:34:42.879Z,20.80
2022-08-09T11:37:17.903Z,20.80
2022-08-09T11:40:03.883Z,20.80
2022-08-09T11:42:51.539Z,20.90
2022-08-09T11:45:37.754Z,21.00
2022-08-09T11:48:19.511Z,20.90
2022-08-09T11:51:37.961Z,20.80
2022-08-09T11:54:00.746Z,21.00
2022-08-09T11:56:34.349Z,21.40
2022-08-09T11:59:11.737Z,21.60
2022-08-09T12:02:17.865Z,21.70
2022-08-09T12:04:32.294Z,21.70
2022-08-09T12:07:08.159Z,21.60
2022-08-09T12:09:36.623Z,21.50
2022-08-09T12:12:20.426Z,21.50
2022-08-09T12:15:08.152Z,21.40
2022-08-09T12:17:44.352Z,21.40
2022-08-09T12:20:26.297Z,21.40
2022-08-09T12:22:57.648Z,21.30
2022-08-09T12:25:36.037Z,21.40
2022-08-09T12:28:59.581Z,21.30
2022-08-09T12:31:58.553Z,21.30
2022-08-09T12:34:03.595Z,21.30
2022-08-09T12:36:32.025Z,21.20
2022-08-09T12:39:13.558Z,21.20
2022-08-09T12:41:41.042Z,21.20
2022-08-09T12:44:13.184Z,21.30
2022-08-09T12:46:49.084Z,21.30
2022-08-09T12:49:18.093Z,21.30
2022-08-09T12:52:00.903Z,21.40
2022-08-09T12:54:29.213Z,21.40
2022-08-09T12:56:59.013Z,21.30
2022-08-09T12:59:57.638Z,21.30
2022-08-09T13:02:21.438Z,21.20
2022-08-09T13:05:02.537Z,21.20
2022-08-09T13:07:50.897Z,21.20
2022-08-09T13:10:17.475Z,21.20
2022-08-09T13:13:09.094Z,21.20
2022-08-09T13:15:36.183Z,21.10
2022-08-09T13:18:06.143Z,21.10
2022-08-09T13:21:04.215Z,21.10
2022-08-09T13:24:06.563Z,21.10
2022-08-09T13:26:49.698Z,21.10
2022-08-09T13:29:28.527Z,21.10
2022-08-09T13:32:14.869Z,21.00
2022-08-09T13:34:46.287Z,21.00
2022-08-09T13:37:45.074Z,21.10
2022-08-09T13:41:46.925Z,21.20
2022-08-09T13:42:50.904Z,21.10
2022-08-09T13:45:18.098Z,21.20
2022-08-09T13:47:49.469Z,21.20
2022-08-09T13:50:31.093Z,21.10
2022-08-09T13:52:58.886Z,21.10
2022-08-09T13:55:29.049Z,20.90
2022-08-09T13:57:59.341Z,20.80
2022-08-09T14:00:28.478Z,20.70
2022-08-09T14:03:03.543Z,20.80
2022-08-09T14:05:56.866Z,20.80
2022-08-09T14:08:28.342Z,20.70
2022-08-09T14:10:55.713Z,20.70
2022-08-09T14:14:15.153Z,20.70
2022-08-09T14:16:15.776Z,20.70
2022-08-09T14:18:45.986Z,20.70
2022-08-09T14:21:20.248Z,20.70
2022-08-09T14:23:53.657Z,20.70
2022-08-09T14:26:25.278Z,20.80
2022-08-09T14:28:57.683Z,20.80
2022-08-09T14:31:36.218Z,20.70
2022-08-09T14:34:14.437Z,20.70
2022-08-09T14:36:45.780Z,20.70
2022-08-09T14:39:16.446Z,20.70
2022-08-09T14:41:44.174Z,20.70
2022-08-09T14:44:11.921Z,20.80
2022-08-09T14:47:01.450Z,20.80
2022-08-09T14:49:28.895Z,20.70
2022-08-09T14:52:02.025Z,20.80
2022-08-09T14:54:29.647Z,20.70
2022-08-09T14:56:59.037Z,20.60
2022-08-09T14:59:29.228Z,20.50
2022-08-09T15:01:57.555Z,20.50
2022-08-09T15:04:25.646Z,20.50
2022-08-09T15:06:52.599Z,20.40
2022-08-09T15:10:03.091Z,20.50
2022-08-09T15:12:07.875Z,20.40
2022-08-09T15:14:38.521Z,20.40
2022-08-09T15:17:08.946Z,20.40
2022-08-09T15:19:36.563Z,20.40
2022-08-09T15:22:03.819Z,20.40
2022-08-09T15:24:32.440Z,20.30
2022-08-09T15:26:59.461Z,20.30
2022-08-09T15:30:58.206Z,20.30
2022-08-09T15:32:29.101Z,20.20
2022-08-09T15:35:00.725Z,20.20
2022-08-09T15:37:57.233Z,20.20
2022-08-09T15:40:31.717Z,20.20
2022-08-09T15:42:59.373Z,20.20
2022-08-09T15:45:29.751Z,20.20
2022-08-09T15:48:05.556Z,20.20
2022-08-09T15:50:34.781Z,20.10
2022-08-09T15:54:02.218Z,20.10
2022-08-09T15:55:58.989Z,20.00
2022-08-09T15:58:31.212Z,20.00
2022-08-09T16:00:59.824Z,20.00
2022-08-09T16:03:37.930Z,20.00
2022-08-09T16:06:05.940Z,19.90
2022-08-09T16:08:33.516Z,19.90
2022-08-09T16:11:02.170Z,19.90
2022-08-09T16:14:03.488Z,19.90
2022-08-09T16:16:19.947Z,19.80
2022-08-09T16:18:47.453Z,19.80
2022-08-09T16:21:17.673Z,19.70
2022-08-09T16:23:55.566Z,19.70
2022-08-09T16:26:35.254Z,19.70
2022-08-09T16:29:21.169Z,19.60
2022-08-09T16:32:12.640Z,19.60
2022-08-09T16:34:55.672Z,19.50
2022-08-09T16:37:55.790Z,19.50
2022-08-09T16:40:13.196Z,19.50
2022-08-09T16:42:45.388Z,19.40
2022-08-09T16:45:13.890Z,19.30
2022-08-09T16:48:43.281Z,19.40
2022-08-09T16:50:33.785Z,19.30
2022-08-09T16:53:02.224Z,19.30
2022-08-09T16:55:31.447Z,19.30
2022-08-09T16:58:17.044Z,19.20
2022-08-09T17:00:46.346Z,19.20
2022-08-09T17:03:21.974Z,19.20
2022-08-09T17:06:07.771Z,19.10
2022-08-09T17:08:45.079Z,19.10
2022-08-09T17:11:24.556Z,19.00
2022-08-09T17:14:01.325Z,18.90
2022-08-09T17:16:29.384Z,18.90
2022-08-09T17:18:56.696Z,18.80
2022-08-09T17:21:25.165Z,18.70
2022-08-09T17:24:26.845Z,18.60
2022-08-09T17:26:42.775Z,18.50
2022-08-09T17:29:20.347Z,18.40
2022-08-09T17:31:49.161Z,18.30
2022-08-09T17:35:00.826Z,18.30
2022-08-09T17:37:03.849Z,18.20
2022-08-09T17:39:48.501Z,18.10
2022-08-09T17:42:41.590Z,18.10
2022-08-09T17:45:06.368Z,18.00
2022-08-09T17:47:48.396Z,18.00
2022-08-09T17:50:25.047Z,17.90
2022-08-09T17:53:04.754Z,17.90
2022-08-09T17:55:48.610Z,17.70
2022-08-09T17:58:19.094Z,17.70
2022-08-09T18:00:46.416Z,17.60
2022-08-09T18:03:15.355Z,17.50
2022-08-09T18:05:44.872Z,17.50
2022-08-09T18:08:13.242Z,17.40
2022-08-09T18:10:46.017Z,17.30
2022-08-09T18:13:43.667Z,17.30
2022-08-09T18:16:16.322Z,17.20
2022-08-09T18:18:48.943Z,17.10
2022-08-09T18:21:22.878Z,17.10
2022-08-09T18:24:10.444Z,16.90
2022-08-09T18:26:38.867Z,16.80
2022-08-09T18:30:39.649Z,16.80
2022-08-09T18:32:02.881Z,16.70
2022-08-09T18:34:31.853Z,16.70
2022-08-09T18:36:58.891Z,16.60
2022-08-09T18:39:32.118Z,16.50
2022-08-09T18:42:01.275Z,16.50
2022-08-09T18:44:28.532Z,16.40
2022-08-09T18:47:07.776Z,16.40
2022-08-09T18:49:43.759Z,16.30
2022-08-09T18:52:14.462Z,16.20
2022-08-09T18:54:52.272Z,16.20
2022-08-09T18:57:22.028Z,16.10
2022-08-09T18:59:54.373Z,16.00
2022-08-09T19:02:32.021Z,16.00
2022-08-09T19:05:19.815Z,16.00
2022-08-09T19:08:04.580Z,16.00
2022-08-09T19:10:39.137Z,15.90
2022-08-09T19:13:20.341Z,15.80
2022-08-09T19:15:56.361Z,15.70
2022-08-09T19:18:33.367Z,15.80
2022-08-09T19:21:09.661Z,15.70
2022-08-09T19:24:37.051Z,15.70
2022-08-09T19:26:29.401Z,15.70
2022-08-09T19:29:09.685Z,15.70
2022-08-09T19:31:45.365Z,15.60
2022-08-09T19:34:24.440Z,15.50
2022-08-09T19:36:52.672Z,15.60
2022-08-09T19:39:21.018Z,15.40
2022-08-09T19:42:06.895Z,15.40
2022-08-09T19:44:34.072Z,15.40
2022-08-09T19:47:01.794Z,15.40
2022-08-09T19:50:10.201Z,15.40
2022-08-09T19:52:15.858Z,15.30
2022-08-09T19:54:45.235Z,15.30
2022-08-09T19:57:12.428Z,15.30
2022-08-09T19:59:59.410Z,15.20
2022-08-09T20:04:26.271Z,15.20
2022-08-09T20:05:15.224Z,15.20
2022-08-09T20:07:59.044Z,15.10
2022-08-09T20:10:34.890Z,15.10
2022-08-09T20:13:05.632Z,15.00
2022-08-09T20:16:35.537Z,15.00
2022-08-09T20:18:20.326Z,15.00
2022-08-09T20:20:50.550Z,14.80
2022-08-09T20:23:20.989Z,14.80
2022-08-09T20:25:51.279Z,14.80
2022-08-09T20:28:28.148Z,14.70
2022-08-09T20:31:04.511Z,14.70
2022-08-09T20:33:38.992Z,14.70
2022-08-09T20:36:08.660Z,14.60
2022-08-09T20:39:02.581Z,14.50
2022-08-09T20:41:34.761Z,14.50
2022-08-09T20:44:03.479Z,14.50
2022-08-09T20:46:42.108Z,14.50
2022-08-09T20:49:11.395Z,14.40
2022-08-09T20:51:40.924Z,14.40
2022-08-09T20:54:12.523Z,14.40
2022-08-09T20:56:46.711Z,14.30
2022-08-09T20:59:16.960Z,14.20
2022-08-09T21:01:50.294Z,14.20
2022-08-09T21:05:55.006Z,14.10
2022-08-09T21:07:10.951Z,14.10
2022-08-09T21:09:45.668Z,14.10
2022-08-09T21:14:48.224Z,14.10
2022-08-09T21:18:23.981Z,14.00
2022-08-09T21:20:18.006Z,14.00
2022-08-09T21:22:53.926Z,13.90
2022-08-09T21:25:39.503Z,13.90
2022-08-09T21:28:11.980Z,14.00
2022-08-09T21:30:42.538Z,13.90
2022-08-09T21:33:09.862Z,13.90
2022-08-09T21:35:40.852Z,13.80
2022-08-09T21:38:18.770Z,13.90
2022-08-09T21:40:57.903Z,13.90
2022-08-09T21:43:56.492Z,13.90
2022-08-09T21:46:11.490Z,13.80
2022-08-09T21:48:42.596Z,13.80
2022-08-09T21:51:23.955Z,13.80
2022-08-09T21:53:54.947Z,13.70
2022-08-09T21:56:43.192Z,13.80
2022-08-09T21:59:09.670Z,13.80
2022-08-09T22:01:59.373Z,13.80
2022-08-09T22:04:37.506Z,13.80
2022-08-09T22:07:10.440Z,13.80
2022-08-09T22:09:43.480Z,13.80
2022-08-09T22:12:18.409Z,13.70
2022-08-09T22:14:51.391Z,13.70
2022-08-09T22:17:18.223Z,13.70
2022-08-09T22:19:58.771Z,13.70
2022-08-09T22:22:29.100Z,13.70
2022-08-09T22:26:07.643Z,13.70
2022-08-09T22:27:42.729Z,13.70
2022-08-09T22:30:10.534Z,13.60
2022-08-09T22:32:37.572Z,13.60
2022-08-09T22:35:06.837Z,13.70
2022-08-09T22:38:06.843Z,13.60
2022-08-09T22:40:34.533Z,13.60
2022-08-09T22:43:01.446Z,13.50
2022-08-09T22:48:15.226Z,13.50
2022-08-09T22:48:35.641Z,13.50
2022-08-09T22:51:10.914Z,13.40
2022-08-09T22:54:02.155Z,13.40
2022-08-09T22:56:34.120Z,13.40
2022-08-09T22:59:06.013Z,13.40
2022-08-09T23:01:52.033Z,13.30
2022-08-09T23:04:18.900Z,13.40
2022-08-09T23:07:04.347Z,13.40
2022-08-09T23:09:38.731Z,13.30
2022-08-09T23:12:05.675Z,13.30
2022-08-09T23:14:41.323Z,13.30
2022-08-09T23:17:09.689Z,13.20
2022-08-09T23:20:00.693Z,13.30
2022-08-09T23:22:23.767Z,13.20
2022-08-09T23:24:50.539Z,13.20
2022-08-09T23:27:17.471Z,13.20
2022-08-09T23:29:44.308Z,13.20
2022-08-09T23:32:11.133Z,13.20
2022-08-09T23:34:38.049Z,13.10
2022-08-09T23:37:04.847Z,13.10
2022-08-09T23:39:31.928Z,13.00
2022-08-09T23:41:58.899Z,13.00
2022-08-09T23:44:25.801Z,13.00
2022-08-09T23:46:57.192Z,13.00
2022-08-09T23:49:25.410Z,13.00
2022-08-09T23:51:53.255Z,12.90
2022-08-09T23:54:20.373Z,12.90
2022-08-09T23:56:54.756Z,12.90
2022-08-09T23:59:23.766Z,12.90
